Time;durP1;ratioP1;P1;durP2;ratioP2;P2;SDS_P1;SDS_P2;PMS_P1;PMS_P2;Temp;Humidity;BMP_temperature;BMP_pressure;BME280_temperature;BME280_humidity;BME280_pressure;Samples;Min_cycle;Max_cycle;Signal;HPM_P1;HPM_P2
2022/08/13 00:00:10;;;;;;;12.02;7.68;;;21.10;99.90;;;;;;5111635;28;20360;-75
2022/08/13 00:02:39;;;;;;;9.80;7.13;;;21.10;99.90;;;;;;5111350;28;20414;-75
2022/08/13 00:05:05;;;;;;;11.25;7.30;;;21.20;99.90;;;;;;5111724;28;20523;-73
2022/08/13 00:07:32;;;;;;;11.55;7.38;;;21.30;99.90;;;;;;5111421;28;20114;-75
2022/08/13 00:09:59;;;;;;;9.98;7.85;;;21.30;99.90;;;;;;5111701;28;20058;-75
2022/08/13 00:15:36;;;;;;;13.25;7.43;;;21.30;99.90;;;;;;5091327;28;20062;-74
2022/08/13 00:18:12;;;;;;;12.30;7.90;;;21.30;99.90;;;;;;5091380;28;20426;-75
2022/08/13 00:20:43;;;;;;;10.38;7.45;;;21.30;99.90;;;;;;5105738;28;20038;-74
2022/08/13 00:23:13;;;;;;;11.63;7.32;;;21.30;99.90;;;;;;5111433;27;20080;-75
2022/08/13 00:25:40;;;;;;;8.85;6.47;;;21.30;99.90;;;;;;5111566;28;20035;-75
2022/08/13 00:28:06;;;;;;;12.27;7.20;;;21.30;99.90;;;;;;5111069;28;20490;-74
2022/08/13 00:30:34;;;;;;;10.50;7.27;;;21.30;99.90;;;;;;5111451;28;20015;-74
2022/08/13 00:33:12;;;;;;;10.55;7.25;;;21.20;99.90;;;;;;5111246;28;20428;-75
2022/08/13 00:35:42;;;;;;;9.13;6.65;;;21.20;99.90;;;;;;5110330;28;20068;-75
2022/08/13 00:38:12;;;;;;;8.73;7.10;;;21.20;99.90;;;;;;5109321;28;20126;-75
2022/08/13 00:40:49;;;;;;;9.70;6.43;;;21.10;99.90;;;;;;5111607;28;20535;-75
2022/08/13 00:43:14;;;;;;;10.52;7.05;;;21.10;99.90;;;;;;5111157;28;20032;-75
2022/08/13 00:45:41;;;;;;;9.85;7.15;;;21.00;99.90;;;;;;5109767;28;20475;-75
2022/08/13 00:50:56;;;;;;;9.35;6.88;;;21.00;99.90;;;;;;5110997;28;20111;-75
2022/08/13 00:53:23;;;;;;;14.27;8.10;;;20.90;99.90;;;;;;5111027;28;20027;-75
2022/08/13 00:55:52;;;;;;;12.52;7.85;;;20.90;99.90;;;;;;5110622;28;20044;-74
2022/08/13 00:58:19;;;;;;;11.23;7.28;;;20.90;99.90;;;;;;5110776;28;20039;-75
2022/08/13 01:00:52;;;;;;;10.05;7.18;;;20.90;99.90;;;;;;5110601;28;20026;-75
2022/08/13 01:03:19;;;;;;;9.55;6.93;;;20.80;99.90;;;;;;5109681;28;20036;-75
2022/08/13 01:05:46;;;;;;;10.40;7.00;;;20.80;99.90;;;;;;5110610;28;20038;-75
2022/08/13 01:08:16;;;;;;;12.98;7.57;;;20.70;99.90;;;;;;5110885;28;20032;-74
2022/08/13 01:10:44;;;;;;;8.82;7.03;;;20.70;99.90;;;;;;5110920;28;20028;-75
2022/08/13 01:13:11;;;;;;;10.10;7.13;;;20.70;99.90;;;;;;5110982;28;20164;-75
2022/08/13 01:15:42;;;;;;;9.13;6.47;;;20.70;99.90;;;;;;5110889;28;20022;-77
2022/08/13 01:18:18;;;;;;;7.95;6.40;;;20.70;99.90;;;;;;5110679;28;20553;-74
2022/08/13 01:21:00;;;;;;;9.50;6.43;;;20.70;99.90;;;;;;5108376;28;20034;-75
2022/08/13 01:23:28;;;;;;;11.43;7.05;;;20.70;99.90;;;;;;5110546;28;20032;-75
2022/08/13 01:25:55;;;;;;;10.00;6.82;;;20.70;99.90;;;;;;5110603;28;20023;-75
2022/08/13 01:28:22;;;;;;;;;;;20.70;99.90;;;;;;5110754;28;20042;-74
2022/08/13 01:30:50;;;;;;;9.20;6.10;;;20.70;99.90;;;;;;5108147;28;20008;-75
2022/08/13 01:33:17;;;;;;;11.15;6.28;;;20.70;99.90;;;;;;5100543;28;20036;-75
2022/08/13 01:35:43;;;;;;;10.93;6.82;;;20.70;99.90;;;;;;5099653;28;20020;-76
2022/08/13 01:38:10;;;;;;;12.30;6.88;;;20.80;99.90;;;;;;5110402;28;20031;-75
2022/08/13 01:40:35;;;;;;;;;;;20.80;99.90;;;;;;5111029;28;20035;-75
2022/08/13 01:43:03;;;;;;;9.18;6.22;;;20.80;99.90;;;;;;5110475;28;19923;-74
2022/08/13 01:45:30;;;;;;;10.90;6.32;;;20.80;99.90;;;;;;5110202;28;20027;-75
2022/08/13 01:50:40;;;;;;;9.35;6.25;;;20.70;99.90;;;;;;5114454;28;19914;-75
2022/08/13 01:53:07;;;;;;;9.13;6.07;;;20.70;99.90;;;;;;5114624;28;20490;-75
2022/08/13 01:55:42;;;;;;;8.80;5.90;;;20.70;99.90;;;;;;5112980;28;20024;-74
2022/08/13 01:58:18;;;;;;;10.40;6.05;;;20.70;99.90;;;;;;5114486;28;20032;-74
2022/08/13 02:00:59;;;;;;;10.07;5.97;;;20.60;99.90;;;;;;5113554;28;20042;-74
2022/08/13 02:03:25;;;;;;;10.00;6.60;;;20.70;99.90;;;;;;5114445;28;20039;-74
2022/08/13 02:05:51;;;;;;;8.20;5.70;;;20.70;99.90;;;;;;5114098;28;20434;-74
2022/08/13 02:08:22;;;;;;;9.73;6.07;;;20.60;99.90;;;;;;5114380;28;20413;-74
2022/08/13 02:10:50;;;;;;;9.90;6.38;;;20.60;99.90;;;;;;5114630;27;20044;-75
2022/08/13 02:13:18;;;;;;;10.50;6.18;;;20.50;99.90;;;;;;5112840;28;20379;-74
2022/08/13 02:15:47;;;;;;;10.85;6.75;;;20.50;99.90;;;;;;5113968;28;20143;-75
2022/08/13 02:18:17;;;;;;;10.85;6.47;;;20.40;99.90;;;;;;5114045;28;20039;-75
2022/08/13 02:20:45;;;;;;;10.98;6.43;;;20.40;99.90;;;;;;5113741;28;20354;-75
2022/08/13 02:23:14;;;;;;;9.02;6.03;;;20.40;99.90;;;;;;5112215;28;20051;-75
2022/08/13 02:25:41;;;;;;;10.07;6.50;;;20.40;99.90;;;;;;5114014;28;20485;-75
2022/08/13 02:28:10;;;;;;;;;;;20.40;99.90;;;;;;5114279;28;20032;-75
2022/08/13 02:30:36;;;;;;;11.85;5.78;;;20.40;99.90;;;;;;5111920;28;20315;-75
2022/08/13 02:33:03;;;;;;;9.17;5.20;;;20.40;99.90;;;;;;5113814;28;20117;-75
2022/08/13 02:35:29;;;;;;;10.88;5.80;;;20.40;99.90;;;;;;5112371;28;20074;-75
2022/08/13 02:37:55;;;;;;;11.23;6.43;;;20.40;99.90;;;;;;5112096;28;20027;-75
2022/08/13 02:43:05;;;;;;;8.65;6.22;;;20.40;99.90;;;;;;5113744;28;20706;-75
2022/08/13 02:45:31;;;;;;;10.07;6.20;;;20.40;99.90;;;;;;5113732;28;20027;-75
2022/08/13 02:47:57;;;;;;;10.90;6.55;;;20.40;99.90;;;;;;5113344;28;20036;-75
2022/08/13 02:50:24;;;;;;;9.93;6.07;;;20.40;99.90;;;;;;5113824;28;20020;-76
2022/08/13 02:52:51;;;;;;;7.47;5.10;;;20.40;99.90;;;;;;5112962;28;20015;-75
2022/08/13 02:55:22;;;;;;;9.05;5.90;;;20.40;99.90;;;;;;5113351;28;20028;-75
2022/08/13 02:57:50;;;;;;;8.27;5.28;;;20.30;99.90;;;;;;5111431;28;20047;-74
2022/08/13 03:00:19;;;;;;;12.70;6.15;;;20.30;99.90;;;;;;5113100;28;20408;-75
2022/08/13 03:02:45;;;;;;;10.98;6.50;;;20.20;99.90;;;;;;5113074;28;20016;-75
2022/08/13 03:05:15;;;;;;;12.65;6.75;;;20.20;99.90;;;;;;5113196;28;20629;-75
2022/08/13 03:07:43;;;;;;;10.38;6.00;;;20.10;99.90;;;;;;5112516;28;20043;-74
2022/08/13 03:10:11;;;;;;;9.40;6.13;;;20.10;99.90;;;;;;5113561;28;20055;-75
2022/08/13 03:12:48;;;;;;;8.15;5.75;;;20.10;99.90;;;;;;5113141;28;20028;-75
2022/08/13 03:15:15;;;;;;;10.05;5.85;;;20.10;99.90;;;;;;5112660;28;20054;-76
2022/08/13 03:17:43;;;;;;;10.20;5.57;;;20.20;99.90;;;;;;5111633;28;20092;-75
2022/08/13 03:20:18;;;;;;;8.07;5.32;;;20.20;99.90;;;;;;5111911;28;20039;-74
2022/08/13 03:22:48;;;;;;;11.88;5.85;;;20.20;99.90;;;;;;5112878;28;20024;-74
2022/08/13 03:25:16;;;;;;;10.07;6.22;;;20.20;99.90;;;;;;5111405;28;20042;-75
2022/08/13 03:27:41;;;;;;;14.23;5.85;;;20.20;99.90;;;;;;5111568;28;20042;-75
2022/08/13 03:30:09;;;;;;;12.07;5.93;;;20.20;99.90;;;;;;5113148;28;20032;-75
2022/08/13 03:32:40;;;;;;;9.77;5.97;;;20.20;99.90;;;;;;5092381;28;20031;-75
2022/08/13 03:35:12;;;;;;;9.90;5.85;;;20.10;99.90;;;;;;5092731;28;20482;-75
2022/08/13 03:37:39;;;;;;;10.68;6.38;;;20.10;99.90;;;;;;5099582;28;20051;-76
2022/08/13 03:40:06;;;;;;;10.43;6.18;;;20.10;99.90;;;;;;5111605;28;20411;-74
2022/08/13 03:42:31;;;;;;;9.15;6.00;;;20.10;99.90;;;;;;5111164;28;20059;-74
2022/08/13 03:44:57;;;;;;;8.43;5.37;;;20.10;99.90;;;;;;5112865;28;20422;-74
2022/08/13 03:47:23;;;;;;;8.87;6.10;;;20.10;99.90;;;;;;5112079;28;20379;-75
2022/08/13 03:49:49;;;;;;;10.10;6.05;;;20.10;99.90;;;;;;5112754;28;20043;-75
2022/08/13 03:52:14;;;;;;;8.70;5.73;;;20.00;99.90;;;;;;5110679;28;20039;-75
2022/08/13 03:54:41;;;;;;;9.70;6.10;;;20.00;99.90;;;;;;5112160;28;20077;-75
2022/08/13 03:57:07;;;;;;;11.57;6.55;;;20.00;99.90;;;;;;5112062;28;20036;-75
2022/08/13 03:59:33;;;;;;;10.10;5.85;;;20.00;99.90;;;;;;5112507;28;20035;-75
2022/08/13 04:02:01;;;;;;;9.60;6.17;;;20.00;99.90;;;;;;5111864;28;20038;-75
2022/08/13 04:04:27;;;;;;;12.07;6.38;;;20.00;99.90;;;;;;5112611;27;20173;-76
2022/08/13 04:06:53;;;;;;;11.10;6.47;;;19.90;99.90;;;;;;5112115;28;20019;-75
2022/08/13 04:09:19;;;;;;;9.85;6.28;;;19.90;99.90;;;;;;5109521;28;20145;-75
2022/08/13 04:11:46;;;;;;;9.83;6.67;;;19.90;99.90;;;;;;5112101;28;20145;-75
2022/08/13 04:14:12;;;;;;;10.93;5.88;;;19.90;99.90;;;;;;5112147;28;20031;-76
2022/08/13 04:16:39;;;;;;;12.65;7.60;;;19.90;99.90;;;;;;5110409;28;20038;-75
2022/08/13 04:19:06;;;;;;;12.73;6.35;;;19.90;99.90;;;;;;5112188;28;20034;-74
2022/08/13 04:21:34;;;;;;;11.55;7.13;;;19.90;99.90;;;;;;5111842;28;20114;-74
2022/08/13 04:24:03;;;;;;;14.20;7.72;;;19.90;99.90;;;;;;5111380;28;20043;-75
2022/08/13 04:26:30;;;;;;;10.75;6.47;;;19.90;99.90;;;;;;5111627;28;20030;-75
2022/08/13 04:28:57;;;;;;;10.23;6.45;;;19.90;99.90;;;;;;5111303;28;20063;-75
2022/08/13 04:31:23;;;;;;;;;;;19.90;99.90;;;;;;5110359;28;20024;-76
2022/08/13 04:33:49;;;;;;;9.32;6.18;;;19.80;99.90;;;;;;5111687;28;20270;-75
2022/08/13 04:36:14;;;;;;;11.55;8.00;;;19.80;99.90;;;;;;5111218;28;20023;-75
2022/08/13 04:38:40;;;;;;;12.50;6.97;;;19.70;99.90;;;;;;5111273;28;20494;-75
2022/08/13 04:41:06;;;;;;;10.03;6.77;;;19.70;99.90;;;;;;5111295;28;20047;-74
2022/08/13 04:43:31;;;;;;;8.57;6.17;;;19.50;99.90;;;;;;5111350;28;20043;-75
2022/08/13 04:46:00;;;;;;;12.90;7.80;;;19.60;99.90;;;;;;5111182;28;20050;-75
2022/08/13 04:48:28;;;;;;;11.88;7.47;;;19.50;99.90;;;;;;5110879;28;20020;-76
2022/08/13 04:50:54;;;;;;;16.15;7.50;;;19.40;99.90;;;;;;5109576;28;20031;-75
2022/08/13 04:53:23;;;;;;;10.90;7.70;;;19.40;99.90;;;;;;5110598;28;20519;-75
2022/08/13 04:55:50;;;;;;;12.55;7.63;;;19.30;99.90;;;;;;5109317;28;20050;-75
2022/08/13 04:58:16;;;;;;;11.43;7.68;;;19.20;99.90;;;;;;5109533;28;20392;-75
2022/08/13 05:00:44;;;;;;;10.18;6.47;;;19.20;99.90;;;;;;5109412;28;20092;-75
2022/08/13 05:03:15;;;;;;;11.00;6.50;;;19.10;99.90;;;;;;5108772;28;20471;-75
2022/08/13 05:05:43;;;;;;;12.07;7.57;;;19.10;99.90;;;;;;5110223;28;20028;-75
2022/08/13 05:08:10;;;;;;;14.93;8.27;;;19.00;99.90;;;;;;5110396;28;20032;-76
2022/08/13 05:10:37;;;;;;;11.93;8.15;;;19.00;99.90;;;;;;5110779;28;20103;-75
2022/08/13 05:13:06;;;;;;;12.57;8.38;;;19.10;99.90;;;;;;5109462;28;20024;-75
2022/08/13 05:15:39;;;;;;;10.82;7.55;;;19.00;99.90;;;;;;5109558;28;20028;-75
2022/08/13 05:18:05;;;;;;;11.38;7.78;;;19.00;99.90;;;;;;5110844;28;20040;-76
2022/08/13 05:20:31;;;;;;;12.13;8.23;;;18.90;99.90;;;;;;5111084;28;20154;-76
2022/08/13 05:22:57;;;;;;;14.97;9.57;;;18.90;99.90;;;;;;5111012;28;20030;-76
2022/08/13 05:25:22;;;;;;;16.50;9.30;;;18.90;99.90;;;;;;5110369;28;20019;-76
2022/08/13 05:27:48;;;;;;;14.10;9.03;;;18.90;99.90;;;;;;5109015;28;20104;-75
2022/08/13 05:30:14;;;;;;;12.90;8.67;;;18.90;99.90;;;;;;5110586;28;20127;-76
2022/08/13 05:32:39;;;;;;;15.87;8.53;;;19.00;99.90;;;;;;5110523;28;20542;-75
2022/08/13 05:35:12;;;;;;;14.37;9.13;;;19.00;99.90;;;;;;5111252;28;20063;-75
2022/08/13 05:37:38;;;;;;;17.70;9.15;;;19.00;99.90;;;;;;5110799;28;20020;-76
2022/08/13 05:40:04;;;;;;;15.80;9.73;;;19.00;99.90;;;;;;5109017;28;20479;-76
2022/08/13 05:42:33;;;;;;;13.70;9.40;;;19.10;99.90;;;;;;5109440;28;20024;-76
2022/08/13 05:44:59;;;;;;;16.65;9.32;;;19.30;99.90;;;;;;5110772;28;20036;-76
2022/08/13 05:47:25;;;;;;;15.57;9.38;;;19.30;99.90;;;;;;5108757;28;20032;-76
2022/08/13 05:49:53;;;;;;;16.35;9.85;;;19.40;99.90;;;;;;5110619;28;20050;-75
2022/08/13 05:52:18;;;;;;;14.80;9.07;;;19.60;99.90;;;;;;5110195;28;20019;-75
2022/08/13 05:54:44;;;;;;;14.37;10.57;;;19.60;99.90;;;;;;5110298;28;20077;-75
2022/08/13 05:57:10;;;;;;;15.63;11.17;;;19.70;99.90;;;;;;5110078;28;20050;-75
2022/08/13 06:05:03;;;;;;;16.02;11.55;;;19.70;99.90;;;;;;5090652;28;20039;-75
2022/08/13 06:07:30;;;;;;;18.33;12.23;;;19.80;99.90;;;;;;5105668;28;20032;-74
2022/08/13 06:09:55;;;;;;;13.32;9.80;;;19.80;99.90;;;;;;5097827;28;20443;-76
2022/08/13 06:12:21;;;;;;;18.20;10.63;;;19.80;99.90;;;;;;5110410;28;20024;-76
2022/08/13 06:14:49;;;;;;;14.27;9.97;;;19.80;99.90;;;;;;5110909;28;20035;-76
2022/08/13 06:17:16;;;;;;;14.23;10.32;;;19.90;99.90;;;;;;5109978;28;20016;-76
2022/08/13 06:19:43;;;;;;;14.55;10.15;;;19.90;99.90;;;;;;5110087;28;20146;-75
2022/08/13 06:22:11;;;;;;;12.90;9.60;;;19.90;99.90;;;;;;5108842;28;20111;-75
2022/08/13 06:24:37;;;;;;;16.30;10.73;;;19.90;99.90;;;;;;5110123;28;20059;-75
2022/08/13 06:27:04;;;;;;;14.02;9.95;;;19.80;99.90;;;;;;5110009;28;20024;-75
2022/08/13 06:29:35;;;;;;;14.93;10.68;;;19.80;99.90;;;;;;5110438;28;20451;-75
2022/08/13 06:32:03;;;;;;;15.60;10.30;;;19.80;99.90;;;;;;5109095;28;20054;-75
2022/08/13 06:34:31;;;;;;;15.43;10.52;;;19.80;99.90;;;;;;5113855;28;20039;-76
2022/08/13 06:36:58;;;;;;;15.75;9.88;;;19.80;99.90;;;;;;5113972;28;20129;-75
2022/08/13 06:39:26;;;;;;;;;;;19.90;99.90;;;;;;5114652;28;20451;-75
2022/08/13 06:41:52;;;;;;;14.43;8.98;;;19.90;99.90;;;;;;5112037;28;19911;-75
2022/08/13 06:44:19;;;;;;;13.88;10.43;;;19.80;99.90;;;;;;5113820;28;20528;-75
2022/08/13 06:46:46;;;;;;;15.68;10.32;;;19.90;99.90;;;;;;5113485;28;20387;-75
2022/08/13 06:49:12;;;;;;;14.30;10.10;;;20.00;99.90;;;;;;5113361;28;20054;-75
2022/08/13 06:51:37;;;;;;;13.87;10.20;;;20.10;99.90;;;;;;5113565;28;20027;-76
2022/08/13 06:54:06;;;;;;;16.40;10.87;;;20.10;99.90;;;;;;5111914;28;20411;-75
2022/08/13 06:56:32;;;;;;;15.20;10.32;;;20.20;99.90;;;;;;5112517;28;20042;-75
2022/08/13 06:58:58;;;;;;;15.00;10.10;;;20.30;99.90;;;;;;5113115;28;20024;-76
2022/08/13 07:01:25;;;;;;;13.45;9.30;;;20.40;99.90;;;;;;5112938;28;20135;-75
2022/08/13 07:03:54;;;;;;;16.42;10.20;;;20.40;99.90;;;;;;5113082;28;20459;-75
2022/08/13 07:06:27;;;;;;;14.75;10.25;;;20.50;99.90;;;;;;5112898;28;20047;-76
2022/08/13 07:08:59;;;;;;;13.00;9.75;;;20.50;99.90;;;;;;5112670;28;20036;-75
2022/08/13 07:11:27;;;;;;;15.40;9.98;;;20.50;99.90;;;;;;5112223;28;20030;-75
2022/08/13 07:13:58;;;;;;;14.05;10.73;;;20.50;99.90;;;;;;5112844;28;20047;-74
2022/08/13 07:16:30;;;;;;;20.45;10.50;;;20.50;99.90;;;;;;5112875;28;20034;-74
2022/08/13 07:18:57;;;;;;;14.48;9.98;;;20.50;99.90;;;;;;5112814;28;20112;-75
2022/08/13 07:21:24;;;;;;;16.35;10.25;;;20.50;99.90;;;;;;5111734;28;20058;-75
2022/08/13 07:23:51;;;;;;;14.27;10.73;;;20.50;99.90;;;;;;5111816;28;20036;-75
2022/08/13 07:26:18;;;;;;;17.55;10.90;;;20.60;99.90;;;;;;5112416;28;20031;-75
2022/08/13 07:28:49;;;;;;;14.75;10.52;;;20.70;99.90;;;;;;5112726;28;20407;-76
2022/08/13 07:31:19;;;;;;;14.85;10.00;;;20.80;99.90;;;;;;5111265;28;20027;-76
2022/08/13 07:33:51;;;;;;;15.10;9.57;;;20.80;99.90;;;;;;5111630;28;20486;-76
2022/08/13 07:36:19;;;;;;;15.40;10.25;;;20.90;99.90;;;;;;5112298;28;20136;-74
2022/08/13 07:38:46;;;;;;;13.65;9.90;;;20.90;99.90;;;;;;5112295;28;20081;-75
2022/08/13 07:41:12;;;;;;;15.32;10.43;;;20.90;99.90;;;;;;5112201;28;20028;-75
2022/08/13 07:43:43;;;;;;;16.45;11.05;;;20.80;99.90;;;;;;5111610;28;20032;-74
2022/08/13 07:46:12;;;;;;;14.25;9.20;;;20.70;99.90;;;;;;5112288;28;20110;-75
2022/08/13 07:48:40;;;;;;;17.92;11.43;;;20.70;99.90;;;;;;5112777;28;20039;-76
2022/08/13 07:51:18;;;;;;;19.67;11.38;;;20.60;99.90;;;;;;5112494;28;20459;-75
2022/08/13 07:53:44;;;;;;;16.33;11.18;;;20.50;99.90;;;;;;5112376;28;20023;-76
2022/08/13 07:56:10;;;;;;;16.08;10.88;;;20.30;99.90;;;;;;5112126;28;20040;-76
2022/08/13 07:58:36;;;;;;;15.23;10.43;;;20.20;99.90;;;;;;5112329;28;20106;-76
2022/08/13 08:01:05;;;;;;;15.25;9.85;;;20.10;99.90;;;;;;5112353;28;20609;-76
2022/08/13 08:03:40;;;;;;;14.55;10.40;;;20.10;99.90;;;;;;5112692;28;20036;-75
2022/08/13 08:06:09;;;;;;;15.70;10.88;;;20.10;99.90;;;;;;5112680;28;20553;-76
2022/08/13 08:08:36;;;;;;;16.38;11.32;;;20.00;99.90;;;;;;5112474;28;20027;-76
2022/08/13 08:11:02;;;;;;;16.58;10.90;;;19.90;99.90;;;;;;5111543;28;20043;-76
2022/08/13 08:13:31;;;;;;;23.15;12.13;;;19.80;99.90;;;;;;5112062;28;20061;-75
2022/08/13 08:15:56;;;;;;;16.05;11.73;;;19.80;99.90;;;;;;5110814;28;20035;-75
2022/08/13 08:18:22;;;;;;;20.77;12.53;;;19.80;99.90;;;;;;5110707;28;20023;-75
2022/08/13 08:20:48;;;;;;;19.97;11.57;;;19.80;99.90;;;;;;5111722;28;20342;-75
2022/08/13 08:23:15;;;;;;;15.80;11.57;;;19.80;99.90;;;;;;5110455;28;20142;-75
2022/08/13 08:25:41;;;;;;;;;;;19.80;99.90;;;;;;5112473;28;20685;-76
2022/08/13 08:28:09;;;;;;;16.88;11.60;;;19.80;99.90;;;;;;5109377;28;19912;-76
2022/08/13 08:30:36;;;;;;;19.02;11.85;;;19.80;99.90;;;;;;5111041;28;20019;-76
2022/08/13 08:33:04;;;;;;;13.75;11.38;;;19.80;99.90;;;;;;5110002;28;20024;-76
2022/08/13 08:35:30;;;;;;;14.82;11.32;;;19.90;99.90;;;;;;5111145;28;20019;-76
2022/08/13 08:43:34;;;;;;;20.50;11.52;;;20.00;99.90;;;;;;5111182;28;20084;-75
2022/08/13 08:46:05;;;;;;;18.40;12.93;;;20.00;99.90;;;;;;5111049;27;20405;-75
2022/08/13 08:48:32;;;;;;;18.17;12.20;;;20.00;99.90;;;;;;5110862;28;20067;-76
2022/08/13 08:51:00;;;;;;;17.40;12.52;;;20.00;99.90;;;;;;5110708;27;20490;-75
2022/08/13 08:53:28;;;;;;;16.52;12.88;;;20.10;99.90;;;;;;5110855;28;20072;-76
2022/08/13 08:55:54;;;;;;;18.13;12.43;;;20.10;99.90;;;;;;5109827;28;20059;-76
2022/08/13 08:58:21;;;;;;;18.23;13.02;;;20.20;99.90;;;;;;5109150;28;20140;-75
2022/08/13 09:00:48;;;;;;;18.73;12.43;;;20.20;99.90;;;;;;5110393;28;20023;-75
2022/08/13 09:03:19;;;;;;;16.42;12.00;;;20.30;99.90;;;;;;5110890;28;20094;-76
2022/08/13 09:05:46;;;;;;;17.33;12.43;;;20.40;99.90;;;;;;5110301;28;20463;-76
2022/08/13 09:08:17;;;;;;;17.90;13.13;;;20.50;99.90;;;;;;5109261;28;20084;-76
2022/08/13 09:10:46;;;;;;;16.75;12.95;;;20.60;99.90;;;;;;5110288;28;20031;-76
2022/08/13 09:13:19;;;;;;;18.20;12.93;;;20.70;99.90;;;;;;5110120;28;20032;-75
2022/08/13 09:15:48;;;;;;;19.85;13.45;;;20.80;99.90;;;;;;5110188;28;20520;-76
2022/08/13 09:18:17;;;;;;;17.33;13.23;;;20.80;99.90;;;;;;5110229;28;20027;-76
2022/08/13 09:20:43;;;;;;;19.85;13.43;;;21.00;99.90;;;;;;5109138;28;20031;-75
2022/08/13 09:23:12;;;;;;;16.98;13.18;;;21.20;99.90;;;;;;5110558;28;20027;-76
2022/08/13 09:25:41;;;;;;;17.65;13.18;;;21.30;99.90;;;;;;5109018;28;20392;-76
2022/08/13 09:28:08;;;;;;;16.80;12.82;;;21.60;99.90;;;;;;5109673;28;20028;-74
2022/08/13 09:30:34;;;;;;;;;;;21.80;99.90;;;;;;5109345;28;20084;-75
2022/08/13 09:33:02;;;;;;;16.27;12.00;;;22.20;99.90;;;;;;5108964;28;20301;-75
2022/08/13 09:35:29;;;;;;;17.45;13.25;;;22.30;99.90;;;;;;5110153;28;20031;-75
2022/08/13 09:37:57;;;;;;;18.40;12.85;;;22.50;99.90;;;;;;5110512;28;20024;-75
2022/08/13 09:40:28;;;;;;;20.88;12.60;;;22.50;99.90;;;;;;5108755;28;20134;-76
2022/08/13 09:43:05;;;;;;;15.93;11.30;;;22.50;99.90;;;;;;5109678;28;20427;-76
2022/08/13 09:45:33;;;;;;;18.80;12.23;;;22.60;99.90;;;;;;5110165;28;20020;-76
2022/08/13 09:47:59;;;;;;;18.02;14.00;;;22.50;99.90;;;;;;5110444;28;20479;-76
2022/08/13 09:50:27;;;;;;;15.88;12.27;;;22.50;99.90;;;;;;5109789;28;20020;-76
2022/08/13 09:52:53;;;;;;;18.00;12.48;;;22.50;99.90;;;;;;5108699;28;20444;-75
2022/08/13 09:55:22;;;;;;;17.98;12.75;;;22.50;99.90;;;;;;5108783;28;20111;-76
2022/08/13 09:57:53;;;;;;;17.42;13.23;;;22.60;99.90;;;;;;5109478;28;20036;-76
2022/08/13 10:00:24;;;;;;;15.27;11.93;;;22.70;99.90;;;;;;5110029;28;20077;-76
2022/08/13 10:02:54;;;;;;;17.98;12.98;;;22.80;99.90;;;;;;5108419;28;20055;-76
2022/08/13 10:05:20;;;;;;;15.00;12.15;;;22.90;99.90;;;;;;5108270;28;20055;-76
2022/08/13 10:07:46;;;;;;;18.40;11.85;;;23.00;99.90;;;;;;5111577;28;20067;-75
2022/08/13 10:10:13;;;;;;;15.20;11.20;;;23.10;99.90;;;;;;5112565;28;20039;-75
2022/08/13 10:12:40;;;;;;;16.05;11.57;;;23.20;99.90;;;;;;5113481;28;20108;-76
2022/08/13 10:15:08;;;;;;;14.85;11.88;;;23.20;99.90;;;;;;5113704;28;20054;-76
2022/08/13 10:17:49;;;;;;;16.80;11.90;;;23.20;99.90;;;;;;5113919;28;20011;-75
2022/08/13 10:20:29;;;;;;;13.40;10.68;;;23.30;99.90;;;;;;5112404;28;20036;-75
2022/08/13 10:22:56;;;;;;;14.05;11.10;;;23.50;99.90;;;;;;5112637;28;20035;-75
2022/08/13 10:25:24;;;;;;;18.00;10.38;;;23.70;99.90;;;;;;5112280;28;20028;-76
2022/08/13 10:27:50;;;;;;;14.85;10.50;;;24.00;99.90;;;;;;5113334;28;20035;-76
2022/08/13 10:30:17;;;;;;;15.63;9.93;;;24.30;99.90;;;;;;5113467;28;20039;-75
2022/08/13 10:32:43;;;;;;;13.57;9.50;;;24.60;99.90;;;;;;5113642;28;20477;-75
2022/08/13 10:35:09;;;;;;;11.20;8.93;;;24.80;99.90;;;;;;5113801;28;20110;-76
2022/08/13 10:37:43;;;;;;;13.38;9.70;;;25.00;99.90;;;;;;5113571;28;20031;-75
2022/08/13 10:40:09;;;;;;;12.82;9.50;;;25.20;99.90;;;;;;5113996;28;20055;-76
2022/08/13 10:42:35;;;;;;;14.35;9.57;;;25.40;99.90;;;;;;5112960;28;20032;-76
2022/08/13 10:45:00;;;;;;;15.57;9.27;;;25.60;99.90;;;;;;5113402;28;20046;-76
2022/08/13 10:47:29;;;;;;;13.60;9.80;;;25.80;99.90;;;;;;5113396;28;20475;-76
2022/08/13 10:49:54;;;;;;;13.38;9.27;;;26.10;99.90;;;;;;5112016;28;20056;-75
2022/08/13 10:52:20;;;;;;;15.20;9.87;;;26.40;99.90;;;;;;5112923;28;20030;-75
2022/08/13 10:54:47;;;;;;;11.50;9.23;;;26.60;99.90;;;;;;5113603;28;20042;-76
2022/08/13 10:57:13;;;;;;;;;;;26.90;99.90;;;;;;5113165;28;20509;-75
2022/08/13 10:59:43;;;;;;;13.60;10.15;;;27.00;99.90;;;;;;5112948;27;19911;-76
2022/08/13 11:02:10;;;;;;;12.18;9.00;;;27.00;99.90;;;;;;5112969;28;20024;-75
2022/08/13 11:04:39;;;;;;;12.75;8.30;;;27.00;99.90;;;;;;5111411;28;20039;-75
2022/08/13 11:07:10;;;;;;;12.20;9.55;;;26.80;99.90;;;;;;5111216;28;20494;-76
2022/08/13 11:09:37;;;;;;;11.75;9.68;;;26.40;99.90;;;;;;5113289;28;20096;-76
2022/08/13 11:12:05;;;;;;;16.83;10.05;;;26.30;99.90;;;;;;5112977;28;20434;-75
2022/08/13 11:14:32;;;;;;;13.18;8.60;;;26.30;99.90;;;;;;5112518;28;20023;-75
2022/08/13 11:16:58;;;;;;;14.07;9.45;;;26.40;99.90;;;;;;5112899;28;20023;-76
2022/08/13 11:19:26;;;;;;;12.70;9.32;;;26.40;99.90;;;;;;5113139;27;20072;-75
2022/08/13 11:21:52;;;;;;;12.80;9.68;;;26.30;99.90;;;;;;5112397;28;20038;-75
2022/08/13 11:24:18;;;;;;;16.33;9.38;;;26.20;99.90;;;;;;5112839;28;20032;-75
2022/08/13 11:26:48;;;;;;;11.30;9.20;;;26.10;99.90;;;;;;5112497;28;20038;-75
2022/08/13 11:29:14;;;;;;;12.38;9.25;;;26.00;99.90;;;;;;5111756;28;20421;-75
2022/08/13 11:31:40;;;;;;;11.27;9.23;;;26.10;99.90;;;;;;5112031;28;20093;-76
2022/08/13 11:34:05;;;;;;;13.83;9.17;;;26.10;99.90;;;;;;5112741;28;20031;-76
2022/08/13 11:36:32;;;;;;;12.85;9.40;;;26.10;99.90;;;;;;5112162;28;20483;-76
2022/08/13 11:38:57;;;;;;;15.45;10.07;;;26.10;99.90;;;;;;5111026;28;20042;-75
2022/08/13 11:41:23;;;;;;;13.93;9.87;;;26.10;99.90;;;;;;5112256;28;20031;-75
2022/08/13 11:43:49;;;;;;;15.88;9.23;;;26.20;99.90;;;;;;5110546;28;20306;-75
2022/08/13 11:46:15;;;;;;;14.02;9.10;;;26.20;99.90;;;;;;5110675;28;20032;-75
2022/08/13 11:48:45;;;;;;;12.23;9.23;;;26.20;99.90;;;;;;5112329;28;20038;-75
2022/08/13 11:51:10;;;;;;;11.65;9.05;;;26.20;99.90;;;;;;5112283;28;20028;-74
2022/08/13 11:53:36;;;;;;;15.00;10.02;;;26.20;99.90;;;;;;5112448;28;20028;-74
2022/08/13 11:56:03;;;;;;;14.48;10.65;;;26.10;99.90;;;;;;5111491;28;20048;-76
2022/08/13 11:58:29;;;;;;;15.07;9.05;;;26.00;99.90;;;;;;5109789;28;20039;-75
2022/08/13 12:00:54;;;;;;;11.68;9.20;;;25.80;99.90;;;;;;5110943;28;20042;-75
2022/08/13 12:03:21;;;;;;;16.77;9.47;;;25.70;99.90;;;;;;5111964;28;20036;-75
2022/08/13 12:05:46;;;;;;;15.65;9.43;;;25.70;99.90;;;;;;5111961;28;20102;-75
2022/08/13 12:08:14;;;;;;;12.80;9.63;;;25.60;99.90;;;;;;5111159;28;20164;-75
2022/08/13 12:10:39;;;;;;;11.27;9.30;;;25.60;99.90;;;;;;5111763;28;20487;-74
2022/08/13 12:13:05;;;;;;;14.45;9.35;;;25.60;99.90;;;;;;5111406;28;20035;-75
2022/08/13 12:15:31;;;;;;;11.53;8.33;;;25.70;99.90;;;;;;5111589;28;20414;-75
2022/08/13 12:17:56;;;;;;;17.77;9.17;;;25.80;99.90;;;;;;5111494;28;20532;-75
2022/08/13 12:20:23;;;;;;;12.37;8.13;;;25.90;99.90;;;;;;5111504;28;20043;-75
2022/08/13 12:22:51;;;;;;;13.10;9.45;;;26.20;99.90;;;;;;5109971;28;20034;-75
2022/08/13 12:25:16;;;;;;;10.85;8.55;;;26.40;99.90;;;;;;5111420;28;20107;-75
2022/08/13 12:27:42;;;;;;;14.10;9.53;;;26.40;99.90;;;;;;5111483;28;20263;-75
2022/08/13 12:30:08;;;;;;;12.27;8.30;;;26.50;99.90;;;;;;5110652;28;20024;-75
2022/08/13 12:32:34;;;;;;;14.13;9.18;;;26.60;99.90;;;;;;5109454;28;20024;-74
2022/08/13 12:34:59;;;;;;;13.23;9.10;;;26.90;99.90;;;;;;5111663;28;20116;-75
2022/08/13 12:37:25;;;;;;;12.30;8.90;;;26.90;99.90;;;;;;5111043;28;20081;-75
2022/08/13 12:39:55;;;;;;;13.82;9.82;;;26.80;99.90;;;;;;5111400;28;20099;-75
2022/08/13 12:42:22;;;;;;;13.00;9.50;;;26.60;99.90;;;;;;5111239;28;20144;-75
2022/08/13 12:44:47;;;;;;;12.50;9.45;;;26.30;99.90;;;;;;5111041;28;20413;-75
2022/08/13 12:47:13;;;;;;;13.40;8.73;;;26.20;99.90;;;;;;5110995;28;20028;-76
2022/08/13 12:49:39;;;;;;;14.50;9.40;;;26.20;99.90;;;;;;5111317;28;20061;-76
2022/08/13 12:52:04;;;;;;;12.00;9.07;;;26.10;99.90;;;;;;5111266;28;20211;-75
2022/08/13 12:54:30;;;;;;;12.70;9.20;;;25.90;99.90;;;;;;5111104;28;20108;-75
2022/08/13 12:56:55;;;;;;;12.30;8.90;;;25.90;99.90;;;;;;5111063;28;20051;-75
2022/08/13 12:59:21;;;;;;;12.93;9.83;;;25.80;99.90;;;;;;5110750;28;20027;-75
2022/08/13 13:01:52;;;;;;;16.20;9.77;;;25.70;99.90;;;;;;5110489;28;20658;-75